Time;durP1;ratioP1;P1;durP2;ratioP2;P2;SDS_P1;SDS_P2;PMS_P1;PMS_P2;Temp;Humidity;BMP_temperature;BMP_pressure;BME280_temperature;BME280_humidity;BME280_pressure;Samples;Min_cycle;Max_cycle;Signal;HPM_P1;HPM_P2
2021/10/03 00:00:08;;;;;;;;;;;20.00;63.10;;;;;;5041737;28;19913;-59
2021/10/03 00:02:34;;;;;;;;;;;20.00;63.20;;;;;;5042743;28;19913;-59
2021/10/03 00:04:59;;;;;;;;;;;20.00;62.10;;;;;;5023531;28;19920;-60
2021/10/03 00:07:25;;;;;;;;;;;20.00;63.00;;;;;;5023504;28;19912;-59
2021/10/03 00:09:51;;;;;;;;;;;20.00;63.10;;;;;;5041560;28;20023;-60
2021/10/03 00:12:17;;;;;;;;;;;20.00;62.60;;;;;;5042094;28;20421;-60
2021/10/03 00:14:43;;;;;;;;;;;20.00;62.40;;;;;;5041327;28;19928;-59
2021/10/03 00:17:08;;;;;;;;;;;20.00;63.40;;;;;;5040790;28;19997;-57
2021/10/03 00:19:34;;;;;;;;;;;20.00;62.90;;;;;;5040272;28;19917;-60
2021/10/03 00:22:00;;;;;;;;;;;20.00;62.70;;;;;;5040706;28;19925;-60
2021/10/03 00:24:26;;;;;;;;;;;20.00;62.60;;;;;;5039967;28;19948;-59
2021/10/03 00:26:52;;;;;;;;;;;20.00;62.70;;;;;;5041364;28;19944;-58
2021/10/03 00:29:17;;;;;;;;;;;20.00;62.50;;;;;;5039762;28;19963;-59
2021/10/03 00:31:43;;;;;;;;;;;20.00;62.70;;;;;;5022757;28;20627;-60
2021/10/03 00:34:08;;;;;;;;;;;20.00;62.60;;;;;;5022649;28;19924;-59
2021/10/03 00:36:34;;;;;;;;;;;20.00;62.70;;;;;;5041289;28;19921;-57
2021/10/03 00:38:59;;;;;;;;;;;20.00;62.50;;;;;;5040753;28;19967;-59
2021/10/03 00:41:24;;;;;;;;;;;20.00;62.30;;;;;;5039412;28;19925;-59
2021/10/03 00:43:50;;;;;;;;;;;20.00;62.60;;;;;;5022618;28;20007;-59
2021/10/03 00:46:15;;;;;;;;;;;20.00;62.50;;;;;;5023306;28;19913;-60
2021/10/03 00:48:41;;;;;;;;;;;20.00;62.60;;;;;;5040363;28;19920;-59
2021/10/03 00:51:06;;;;;;;;;;;20.00;62.20;;;;;;5039933;28;20356;-59
2021/10/03 00:53:32;;;;;;;;;;;20.00;62.50;;;;;;5041177;28;19999;-59
2021/10/03 00:55:57;;;;;;;;;;;20.00;62.50;;;;;;5040630;28;19928;-59
2021/10/03 00:58:23;;;;;;;;;;;20.00;62.30;;;;;;5039272;28;20652;-60
2021/10/03 01:00:49;;;;;;;;;;;20.00;62.40;;;;;;5022181;28;19917;-58
2021/10/03 01:03:15;;;;;;;;;;;20.00;62.20;;;;;;5038559;28;20004;-60
2021/10/03 01:05:40;;;;;;;;;;;20.00;61.90;;;;;;5039513;28;19924;-60
2021/10/03 01:08:06;;;;;;;;;;;20.00;62.20;;;;;;5039447;28;19925;-59
2021/10/03 01:10:32;;;;;;;;;;;20.00;62.10;;;;;;5039474;28;20439;-59
2021/10/03 01:13:03;;;;;;;;;;;20.10;61.20;;;;;;5041067;28;19913;-60
2021/10/03 01:15:28;;;;;;;;;;;20.00;61.90;;;;;;5040029;28;19939;-59
2021/10/03 01:17:54;;;;;;;;;;;20.00;62.00;;;;;;5041079;28;19917;-59
2021/10/03 01:20:19;;;;;;;;;;;20.00;62.10;;;;;;5030463;28;19985;-58
2021/10/03 01:22:45;;;;;;;;;;;20.00;62.30;;;;;;5040215;28;19951;-59
2021/10/03 01:25:10;;;;;;;;;;;20.00;61.90;;;;;;5040622;28;20381;-60
2021/10/03 01:27:37;;;;;;;;;;;20.00;62.30;;;;;;5040207;28;20079;-60
2021/10/03 01:30:06;;;;;;;;;;;20.00;61.80;;;;;;5039657;28;19966;-59
2021/10/03 01:32:32;;;;;;;;;;;20.00;62.00;;;;;;5039713;28;19920;-59
2021/10/03 01:34:57;;;;;;;;;;;20.00;61.70;;;;;;5040937;28;20065;-58
2021/10/03 01:37:24;;;;;;;;;;;20.00;60.70;;;;;;5040318;28;20228;-59
2021/10/03 01:39:49;;;;;;;;;;;20.00;61.90;;;;;;5038740;28;20159;-60
2021/10/03 01:42:15;;;;;;;;;;;20.00;61.90;;;;;;5021324;28;19917;-59
2021/10/03 01:44:40;;;;;;;;;;;20.00;61.60;;;;;;5039807;28;19977;-59
2021/10/03 01:47:06;;;;;;;;;;;20.00;61.70;;;;;;5038921;28;20362;-59
2021/10/03 01:49:31;;;;;;;;;;;20.00;61.50;;;;;;5020880;28;19917;-59
2021/10/03 01:51:57;;;;;;;;;;;20.00;61.70;;;;;;5038713;28;19974;-60
2021/10/03 01:54:22;;;;;;;;;;;20.00;61.30;;;;;;5038466;28;19923;-59
2021/10/03 01:56:48;;;;;;;;;;;20.00;61.40;;;;;;5038672;28;19967;-60
2021/10/03 01:59:13;;;;;;;;;;;20.00;61.50;;;;;;5039484;28;20385;-59
2021/10/03 02:01:47;;;;;;;;;;;20.00;61.40;;;;;;5038336;28;19982;-59
2021/10/03 02:04:13;;;;;;;;;;;20.00;61.60;;;;;;5034517;28;19946;-59
2021/10/03 02:06:45;;;;;;;;;;;20.00;61.50;;;;;;5038691;28;20297;-59
2021/10/03 02:09:11;;;;;;;;;;;20.00;61.60;;;;;;5038960;28;19968;-60
2021/10/03 02:11:38;;;;;;;;;;;20.00;61.10;;;;;;5020765;28;19942;-59
2021/10/03 02:14:04;;;;;;;;;;;20.00;61.50;;;;;;5038748;28;20445;-58
2021/10/03 02:16:29;;;;;;;;;;;20.00;61.70;;;;;;5038658;28;19927;-59
2021/10/03 02:18:55;;;;;;;;;;;19.90;61.70;;;;;;5038294;28;21691;-60
2021/10/03 02:21:21;;;;;;;;;;;20.00;61.40;;;;;;5038798;28;19920;-58
2021/10/03 02:23:46;;;;;;;;;;;20.00;61.50;;;;;;5039650;28;19925;-60
2021/10/03 02:26:12;;;;;;;;;;;20.00;61.50;;;;;;5038741;28;19927;-60
2021/10/03 02:28:37;;;;;;;;;;;20.00;61.70;;;;;;5038104;28;19916;-60
2021/10/03 02:31:04;;;;;;;;;;;20.00;61.70;;;;;;5038828;28;19921;-60
2021/10/03 02:33:30;;;;;;;;;;;20.00;61.50;;;;;;5038240;28;19917;-59
2021/10/03 02:35:55;;;;;;;;;;;20.00;61.70;;;;;;5039269;28;19923;-59
2021/10/03 02:38:22;;;;;;;;;;;20.00;61.60;;;;;;5037790;28;19999;-59
2021/10/03 02:40:47;;;;;;;;;;;20.00;61.00;;;;;;5039298;28;19912;-59
2021/10/03 02:43:13;;;;;;;;;;;20.00;61.30;;;;;;5030272;28;19924;-60
2021/10/03 02:45:40;;;;;;;;;;;20.00;61.20;;;;;;5020597;28;20607;-58
2021/10/03 02:48:05;;;;;;;;;;;20.00;61.30;;;;;;5038038;28;20012;-60
2021/10/03 02:50:31;;;;;;;;;;;20.00;61.30;;;;;;5038021;28;20042;-58
2021/10/03 02:52:56;;;;;;;;;;;20.00;61.40;;;;;;5038050;28;21541;-59
2021/10/03 02:55:22;;;;;;;;;;;20.00;61.30;;;;;;5038624;28;19920;-60
2021/10/03 02:57:47;;;;;;;;;;;20.00;61.40;;;;;;5037815;28;20417;-59
2021/10/03 03:00:13;;;;;;;;;;;20.00;61.40;;;;;;5038240;28;19921;-59
2021/10/03 03:02:38;;;;;;;;;;;20.00;61.30;;;;;;5039158;28;20159;-60
2021/10/03 03:05:08;;;;;;;;;;;20.00;61.50;;;;;;5041194;28;20321;-59
2021/10/03 03:07:33;;;;;;;;;;;20.00;61.20;;;;;;5034821;28;20611;-59
2021/10/03 03:09:59;;;;;;;;;;;20.00;61.40;;;;;;5042007;28;19924;-59
2021/10/03 03:12:24;;;;;;;;;;;20.00;61.30;;;;;;5041819;28;20166;-59
2021/10/03 03:14:50;;;;;;;;;;;20.00;61.30;;;;;;5041974;28;19924;-59
2021/10/03 03:17:15;;;;;;;;;;;20.00;61.40;;;;;;5043184;28;19916;-59
2021/10/03 03:19:41;;;;;;;;;;;20.00;61.30;;;;;;5041269;28;19921;-59
2021/10/03 03:22:07;;;;;;;;;;;20.00;61.40;;;;;;5042261;28;19959;-59
2021/10/03 03:24:32;;;;;;;;;;;20.00;61.30;;;;;;5042379;28;19927;-59
2021/10/03 03:26:57;;;;;;;;;;;20.00;61.40;;;;;;5024445;28;19987;-58
2021/10/03 03:29:23;;;;;;;;;;;20.00;61.30;;;;;;5042786;28;19912;-56
2021/10/03 03:31:48;;;;;;;;;;;20.00;60.90;;;;;;5042174;28;19917;-59
2021/10/03 03:34:14;;;;;;;;;;;20.00;61.20;;;;;;5042075;28;19967;-60
2021/10/03 03:36:39;;;;;;;;;;;20.00;61.30;;;;;;5041525;28;20059;-59
2021/10/03 03:39:05;;;;;;;;;;;20.00;61.30;;;;;;5041489;28;19921;-60
2021/10/03 03:41:30;;;;;;;;;;;20.00;61.30;;;;;;5042763;28;19924;-58
2021/10/03 03:43:55;;;;;;;;;;;20.00;61.30;;;;;;5041382;28;19927;-59
2021/10/03 03:46:21;;;;;;;;;;;20.00;61.20;;;;;;5040915;28;19924;-59
2021/10/03 03:48:46;;;;;;;;;;;20.00;61.30;;;;;;5040315;28;19920;-59
2021/10/03 03:51:12;;;;;;;;;;;20.00;61.20;;;;;;5023396;28;19920;-60
2021/10/03 03:53:37;;;;;;;;;;;20.00;61.10;;;;;;5041692;28;19928;-60
2021/10/03 03:56:03;;;;;;;;;;;20.00;61.10;;;;;;5040241;28;19920;-60
2021/10/03 03:58:28;;;;;;;;;;;20.00;61.20;;;;;;5041727;28;20290;-59
2021/10/03 04:00:54;;;;;;;;;;;20.00;61.10;;;;;;5041830;28;19923;-58
2021/10/03 04:03:19;;;;;;;;;;;20.00;61.10;;;;;;5042124;28;19913;-58
2021/10/03 04:05:45;;;;;;;;;;;20.00;61.20;;;;;;5042254;28;20301;-59
2021/10/03 04:08:10;;;;;;;;;;;20.00;61.10;;;;;;5041741;28;19917;-59
2021/10/03 04:10:35;;;;;;;;;;;19.90;61.00;;;;;;5042692;28;19912;-58
2021/10/03 04:13:01;;;;;;;;;;;20.00;61.00;;;;;;5042566;28;19984;-58
2021/10/03 04:15:26;;;;;;;;;;;20.00;61.10;;;;;;5041192;28;19913;-58
2021/10/03 04:17:52;;;;;;;;;;;20.00;61.10;;;;;;5042553;28;20972;-58
2021/10/03 04:20:17;;;;;;;;;;;20.00;61.10;;;;;;5040715;28;19912;-60
2021/10/03 04:22:43;;;;;;;;;;;20.00;61.00;;;;;;5041454;28;19923;-59
2021/10/03 04:25:08;;;;;;;;;;;20.00;61.00;;;;;;5041533;28;19920;-58
2021/10/03 04:27:34;;;;;;;;;;;20.00;60.80;;;;;;5040787;28;20323;-60
2021/10/03 04:29:59;;;;;;;;;;;20.00;60.90;;;;;;5041139;28;19917;-59
2021/10/03 04:32:25;;;;;;;;;;;19.90;60.80;;;;;;5040974;28;19925;-59
2021/10/03 04:34:50;;;;;;;;;;;19.90;60.90;;;;;;5040295;28;20386;-60
2021/10/03 04:37:16;;;;;;;;;;;20.00;60.90;;;;;;5040419;28;20385;-59
2021/10/03 04:39:41;;;;;;;;;;;20.00;60.90;;;;;;5039226;28;19960;-60
2021/10/03 04:42:07;;;;;;;;;;;20.00;60.80;;;;;;5021879;28;19913;-59
2021/10/03 04:44:32;;;;;;;;;;;20.00;60.90;;;;;;5040912;28;20003;-59
2021/10/03 04:46:58;;;;;;;;;;;20.00;60.80;;;;;;5041386;28;19920;-60
2021/10/03 04:49:23;;;;;;;;;;;20.00;60.40;;;;;;5039351;28;19956;-60
2021/10/03 04:51:48;;;;;;;;;;;20.00;60.20;;;;;;5039531;28;19927;-58
2021/10/03 04:54:14;;;;;;;;;;;20.00;60.60;;;;;;5039950;28;19917;-59
2021/10/03 04:56:39;;;;;;;;;;;19.90;60.70;;;;;;5039820;28;19921;-60
2021/10/03 04:59:05;;;;;;;;;;;20.00;60.80;;;;;;5041749;28;20361;-60
2021/10/03 05:01:30;;;;;;;;;;;19.90;60.80;;;;;;5021704;28;19994;-60
2021/10/03 05:03:56;;;;;;;;;;;19.90;60.80;;;;;;5039697;28;19925;-59
2021/10/03 05:06:21;;;;;;;;;;;19.90;60.80;;;;;;5022322;28;19917;-58
2021/10/03 05:08:47;;;;;;;;;;;19.90;60.70;;;;;;5038909;28;20687;-60
2021/10/03 05:11:12;;;;;;;;;;;19.90;60.80;;;;;;5039270;28;19920;-59
2021/10/03 05:13:38;;;;;;;;;;;20.00;60.70;;;;;;5040097;28;20111;-57
2021/10/03 05:16:03;;;;;;;;;;;19.90;60.70;;;;;;5039954;28;20060;-59
2021/10/03 05:18:29;;;;;;;;;;;20.00;61.40;;;;;;5039346;28;19917;-59
2021/10/03 05:20:54;;;;;;;;;;;19.90;61.30;;;;;;5039506;28;19917;-58
2021/10/03 05:23:20;;;;;;;;;;;19.90;60.70;;;;;;5040217;28;19921;-60
2021/10/03 05:25:45;;;;;;;;;;;19.90;60.60;;;;;;5039606;28;20413;-58
2021/10/03 05:28:10;;;;;;;;;;;20.00;60.70;;;;;;5039553;28;19924;-59
2021/10/03 05:30:36;;;;;;;;;;;19.90;60.60;;;;;;5039365;28;19920;-59
2021/10/03 05:33:01;;;;;;;;;;;20.00;60.60;;;;;;5039589;28;20953;-59
2021/10/03 05:35:27;;;;;;;;;;;19.90;60.70;;;;;;5039599;28;19939;-59
2021/10/03 05:37:52;;;;;;;;;;;19.90;60.60;;;;;;5040186;28;20027;-59
2021/10/03 05:40:18;;;;;;;;;;;19.90;60.60;;;;;;5039783;28;19959;-58
2021/10/03 05:42:43;;;;;;;;;;;19.90;60.60;;;;;;5039886;28;19916;-58
2021/10/03 05:45:09;;;;;;;;;;;19.90;60.70;;;;;;5038882;28;19920;-58
2021/10/03 05:47:34;;;;;;;;;;;19.90;60.60;;;;;;5039140;28;19920;-59
2021/10/03 05:50:00;;;;;;;;;;;19.90;60.60;;;;;;5038879;28;20293;-58
2021/10/03 05:52:25;;;;;;;;;;;19.90;60.60;;;;;;5039395;28;19920;-60
2021/10/03 05:54:51;;;;;;;;;;;19.90;60.70;;;;;;5038031;28;19923;-59
2021/10/03 05:57:18;;;;;;;;;;;19.90;60.70;;;;;;5039163;28;20449;-60
2021/10/03 05:59:44;;;;;;;;;;;19.90;60.70;;;;;;5038661;28;22677;-59
2021/10/03 06:02:09;;;;;;;;;;;19.90;60.70;;;;;;5039440;28;19920;-59
2021/10/03 06:04:35;;;;;;;;;;;19.90;60.60;;;;;;5039162;28;19913;-60
2021/10/03 06:07:00;;;;;;;;;;;19.90;60.60;;;;;;5039834;28;19916;-59
2021/10/03 06:09:25;;;;;;;;;;;19.90;60.60;;;;;;5038557;28;19939;-62
2021/10/03 06:11:51;;;;;;;;;;;19.90;60.70;;;;;;5039153;28;19944;-59
2021/10/03 06:14:16;;;;;;;;;;;19.90;60.50;;;;;;5038686;28;19921;-58
2021/10/03 06:16:42;;;;;;;;;;;19.90;60.60;;;;;;5038322;28;19921;-59
2021/10/03 06:19:09;;;;;;;;;;;19.90;60.60;;;;;;5038427;28;19924;-59
2021/10/03 06:21:34;;;;;;;;;;;19.90;60.70;;;;;;5038897;28;19916;-59
2021/10/03 06:24:01;;;;;;;;;;;19.90;60.60;;;;;;5038184;28;21348;-59
2021/10/03 06:26:27;;;;;;;;;;;19.90;60.50;;;;;;5039661;28;19921;-59
2021/10/03 06:28:52;;;;;;;;;;;19.90;60.70;;;;;;5040055;28;20286;-59
2021/10/03 06:31:17;;;;;;;;;;;19.90;60.60;;;;;;5040581;28;19913;-59
2021/10/03 06:33:43;;;;;;;;;;;19.90;60.60;;;;;;5039856;28;19931;-59
2021/10/03 06:36:09;;;;;;;;;;;19.90;60.60;;;;;;5038086;28;19939;-60
2021/10/03 06:38:34;;;;;;;;;;;19.90;60.70;;;;;;5021903;28;19966;-59
2021/10/03 06:40:59;;;;;;;;;;;19.90;60.60;;;;;;5039731;28;19971;-59
2021/10/03 06:43:25;;;;;;;;;;;19.90;60.70;;;;;;5038350;28;20298;-58
2021/10/03 06:45:50;;;;;;;;;;;19.90;60.70;;;;;;5039164;28;20042;-59
2021/10/03 06:48:16;;;;;;;;;;;19.90;60.80;;;;;;5037758;28;19927;-58
2021/10/03 06:50:41;;;;;;;;;;;19.90;60.70;;;;;;5039331;28;19936;-59
2021/10/03 06:53:07;;;;;;;;;;;19.90;60.70;;;;;;5052011;22;20419;-54
2021/10/03 06:55:32;;;;;;;;;;;19.90;60.70;;;;;;5046424;28;19944;-51
2021/10/03 06:58:01;;;;;;;;;;;19.90;60.60;;;;;;5044748;28;19917;-54
2021/10/03 07:00:26;;;;;;;;;;;19.90;60.60;;;;;;5066375;28;20369;-53
2021/10/03 07:02:52;;;;;;;;;;;19.90;60.70;;;;;;5077340;28;19918;-55
2021/10/03 07:05:17;;;;;;;;;;;19.90;60.80;;;;;;5071058;28;20651;-56
2021/10/03 07:07:42;;;;;;;;;;;19.90;60.70;;;;;;5074699;28;19916;-53
2021/10/03 07:10:08;;;;;;;;;;;20.00;60.00;;;;;;5060607;28;19927;-54
2021/10/03 07:12:34;;;;;;;;;;;19.90;60.60;;;;;;5050729;28;19923;-55
2021/10/03 07:14:59;;;;;;;;;;;19.90;61.00;;;;;;5061886;28;20348;-54
2021/10/03 07:17:24;;;;;;;;;;;20.00;59.70;;;;;;5069407;28;20396;-53
2021/10/03 07:19:50;;;;;;;;;;;19.90;60.40;;;;;;5068026;28;19916;-55
2021/10/03 07:22:15;;;;;;;;;;;19.90;60.90;;;;;;5068867;28;19912;-53
2021/10/03 07:24:41;;;;;;;;;;;19.90;60.80;;;;;;5061859;28;19916;-54
2021/10/03 07:27:06;;;;;;;;;;;19.90;61.10;;;;;;5066714;28;19965;-54
2021/10/03 07:29:32;;;;;;;;;;;19.90;61.60;;;;;;5064898;28;21125;-55
2021/10/03 07:31:58;;;;;;;;;;;19.90;62.00;;;;;;5069463;28;19913;-52
2021/10/03 07:34:23;;;;;;;;;;;19.90;60.80;;;;;;5061768;28;19928;-53
2021/10/03 07:36:49;;;;;;;;;;;19.90;62.40;;;;;;5066716;28;19920;-52
2021/10/03 07:39:14;;;;;;;;;;;19.80;62.80;;;;;;5073487;28;19935;-54
2021/10/03 07:41:40;;;;;;;;;;;19.90;62.60;;;;;;5064563;28;19923;-51
2021/10/03 07:44:05;;;;;;;;;;;19.90;62.50;;;;;;5062420;28;19920;-56
2021/10/03 07:46:30;;;;;;;;;;;19.80;62.10;;;;;;5047039;28;19920;-53
2021/10/03 07:48:56;;;;;;;;;;;19.90;61.60;;;;;;5067955;28;19917;-52
2021/10/03 07:51:21;;;;;;;;;;;19.90;61.00;;;;;;5054576;28;20057;-54
2021/10/03 07:53:47;;;;;;;;;;;19.90;60.50;;;;;;5070953;28;20285;-54
2021/10/03 07:56:12;;;;;;;;;;;19.90;60.00;;;;;;5063458;28;19973;-56
2021/10/03 07:58:38;;;;;;;;;;;19.90;59.60;;;;;;5067384;28;19920;-55
2021/10/03 08:01:03;;;;;;;;;;;19.90;59.10;;;;;;5072618;28;20604;-55
2021/10/03 08:03:28;;;;;;;;;;;19.90;58.70;;;;;;5050963;28;19913;-52
2021/10/03 08:05:54;;;;;;;;;;;19.90;58.40;;;;;;5064530;28;19924;-52
2021/10/03 08:08:19;;;;;;;;;;;19.90;58.30;;;;;;5068751;28;19913;-55
2021/10/03 08:10:45;;;;;;;;;;;19.80;58.10;;;;;;5078013;28;20292;-51
2021/10/03 08:13:12;;;;;;;;;;;19.90;58.30;;;;;;5071181;28;19965;-55
2021/10/03 08:15:39;;;;;;;;;;;19.90;58.00;;;;;;5081166;28;19984;-53
2021/10/03 08:18:04;;;;;;;;;;;19.90;57.60;;;;;;5053804;28;19989;-54
2021/10/03 08:20:30;;;;;;;;;;;19.90;57.80;;;;;;5081295;28;19917;-55
2021/10/03 08:22:55;;;;;;;;;;;19.80;57.90;;;;;;5057910;28;19917;-53
2021/10/03 08:25:21;;;;;;;;;;;19.90;57.60;;;;;;5062488;28;19989;-56
2021/10/03 08:27:46;;;;;;;;;;;19.80;57.70;;;;;;5068700;28;19917;-55
2021/10/03 08:30:12;;;;;;;;;;;19.90;57.50;;;;;;5071333;28;20383;-52
2021/10/03 08:32:38;;;;;;;;;;;19.80;57.40;;;;;;5075242;28;19924;-55
2021/10/03 08:35:04;;;;;;;;;;;19.80;57.60;;;;;;5064886;28;19920;-56
2021/10/03 08:37:30;;;;;;;;;;;19.80;56.50;;;;;;5074798;28;20046;-51
2021/10/03 08:39:56;;;;;;;;;;;19.90;57.50;;;;;;5071572;28;19935;-55
2021/10/03 08:42:21;;;;;;;;;;;19.80;57.60;;;;;;5073600;28;19923;-50
2021/10/03 08:44:47;;;;;;;;;;;19.80;57.70;;;;;;5064641;28;20395;-53
2021/10/03 08:47:13;;;;;;;;;;;19.90;57.50;;;;;;5069887;28;19912;-55
2021/10/03 08:49:38;;;;;;;;;;;19.80;57.60;;;;;;5073155;28;20300;-56
2021/10/03 08:52:04;;;;;;;;;;;19.80;57.70;;;;;;5077391;28;19916;-53
2021/10/03 08:54:33;;;;;;;;;;;19.80;58.30;;;;;;5076311;28;19975;-50
2021/10/03 08:56:59;;;;;;;;;;;19.80;57.70;;;;;;5070657;28;20106;-56
2021/10/03 08:59:25;;;;;;;;;;;19.80;57.70;;;;;;5071620;28;19946;-53
2021/10/03 09:01:54;;;;;;;;;;;19.80;57.70;;;;;;5078515;28;19942;-55
2021/10/03 09:04:25;;;;;;;;;;;19.80;57.50;;;;;;5075552;28;19912;-55
2021/10/03 09:07:01;;;;;;;;;;;19.80;57.60;;;;;;5079325;28;19916;-54
2021/10/03 09:09:45;;;;;;;;;;;19.80;57.70;;;;;;5079589;28;19913;-51
2021/10/03 09:12:29;;;;;;;;;;;19.80;57.90;;;;;;5079688;28;20574;-52
2021/10/03 09:14:55;;;;;;;;;;;19.80;58.00;;;;;;5057724;28;20488;-54
2021/10/03 09:17:21;;;;;;;;;;;19.80;58.10;;;;;;5076071;28;19971;-51
2021/10/03 09:20:05;;;;;;;;;;;19.80;58.00;;;;;;5070519;28;19913;-51
2021/10/03 09:22:30;;;;;;;;;;;19.80;57.70;;;;;;5055064;28;19966;-51
2021/10/03 09:24:56;;;;;;;;;;;19.80;57.70;;;;;;5050701;28;19916;-54
2021/10/03 09:27:21;;;;;;;;;;;19.80;57.30;;;;;;5067357;28;19913;-52
2021/10/03 09:29:46;;;;;;;;;;;19.80;57.70;;;;;;5063535;28;19919;-55
2021/10/03 09:32:18;;;;;;;;;;;19.80;57.70;;;;;;5055146;28;19920;-52
2021/10/03 09:34:49;;;;;;;;;;;19.80;58.00;;;;;;5064615;28;19921;-54
2021/10/03 09:37:15;;;;;;;;;;;19.80;58.10;;;;;;5068190;28;19917;-51
2021/10/03 09:39:41;;;;;;;;;;;19.80;57.50;;;;;;5027793;28;19916;-54
2021/10/03 09:42:13;;;;;;;;;;;19.80;57.70;;;;;;5063123;28;19939;-52
2021/10/03 09:44:38;;;;;;;;;;;19.80;57.90;;;;;;5066863;28;20292;-55
2021/10/03 09:47:05;;;;;;;;;;;19.80;57.90;;;;;;5070538;28;19916;-56
2021/10/03 09:49:31;;;;;;;;;;;19.80;58.10;;;;;;5070578;28;19913;-54
2021/10/03 09:51:56;;;;;;;;;;;19.80;58.10;;;;;;5071906;28;19924;-51
2021/10/03 09:54:22;;;;;;;;;;;19.80;58.60;;;;;;5069778;28;19927;-55
2021/10/03 09:56:48;;;;;;;;;;;19.80;58.30;;;;;;5065753;28;20369;-54
2021/10/03 09:59:14;;;;;;;;;;;19.80;58.30;;;;;;5067949;28;19935;-51
2021/10/03 10:01:44;;;;;;;;;;;19.80;59.00;;;;;;5062964;28;19996;-55
2021/10/03 10:04:09;;;;;;;;;;;19.80;58.30;;;;;;5072498;28;19928;-56
2021/10/03 10:06:35;;;;;;;;;;;19.80;58.30;;;;;;5067326;28;19946;-52
2021/10/03 10:09:03;;;;;;;;;;;19.80;58.50;;;;;;5052169;28;20008;-56
2021/10/03 10:11:32;;;;;;;;;;;19.80;58.20;;;;;;5058287;28;20396;-54
2021/10/03 10:13:58;;;;;;;;;;;19.80;58.20;;;;;;5082557;28;19940;-56
2021/10/03 10:16:30;;;;;;;;;;;19.80;58.10;;;;;;5059955;28;19924;-53
2021/10/03 10:19:14;;;;;;;;;;;19.80;58.30;;;;;;5082337;28;19947;-54
2021/10/03 10:21:39;;;;;;;;;;;19.80;58.50;;;;;;5071151;28;19919;-55
2021/10/03 10:24:31;;;;;;;;;;;19.90;57.40;;;;;;5068518;28;19917;-52
2021/10/03 10:26:56;;;;;;;;;;;19.80;58.00;;;;;;5045486;28;19944;-55
2021/10/03 10:29:41;;;;;;;;;;;19.80;58.00;;;;;;5067785;28;19994;-52
2021/10/03 10:32:09;;;;;;;;;;;19.70;58.40;;;;;;5071075;28;19927;-51
2021/10/03 10:34:55;;;;;;;;;;;19.80;58.40;;;;;;5063993;28;19958;-56
2021/10/03 10:37:20;;;;;;;;;;;19.80;58.50;;;;;;5047770;28;19920;-56
2021/10/03 10:39:46;;;;;;;;;;;19.80;58.70;;;;;;5044151;28;19923;-53
2021/10/03 10:42:23;;;;;;;;;;;19.80;58.70;;;;;;5065919;28;20408;-54
2021/10/03 10:44:48;;;;;;;;;;;19.80;58.60;;;;;;5075198;28;19917;-55
2021/10/03 10:47:15;;;;;;;;;;;19.80;58.60;;;;;;5071612;28;19913;-56
2021/10/03 10:49:47;;;;;;;;;;;19.80;58.90;;;;;;5051822;28;19942;-56
2021/10/03 10:52:19;;;;;;;;;;;19.80;58.90;;;;;;5075030;28;19923;-51
2021/10/03 10:55:09;;;;;;;;;;;19.80;59.00;;;;;;5070923;28;19916;-51
2021/10/03 10:57:46;;;;;;;;;;;19.80;59.00;;;;;;5066652;28;19928;-55
2021/10/03 11:00:22;;;;;;;;;;;19.80;59.00;;;;;;5067820;28;19948;-54
2021/10/03 11:02:52;;;;;;;;;;;19.70;59.00;;;;;;5064204;28;19924;-52
2021/10/03 11:05:43;;;;;;;;;;;19.70;59.10;;;;;;5061836;28;19924;-55
2021/10/03 11:08:13;;;;;;;;;;;19.70;59.10;;;;;;5067331;28;19931;-57
2021/10/03 11:10:57;;;;;;;;;;;19.70;58.90;;;;;;5065645;28;19920;-57
2021/10/03 11:13:37;;;;;;;;;;;19.70;58.80;;;;;;5065620;28;19916;-57
2021/10/03 11:16:33;;;;;;;;;;;19.70;58.90;;;;;;5067184;28;19917;-53
2021/10/03 11:19:23;;;;;;;;;;;19.80;58.80;;;;;;5047343;28;20040;-56
2021/10/03 11:21:49;;;;;;;;;;;19.80;58.80;;;;;;5069618;28;19951;-50
2021/10/03 11:24:17;;;;;;;;;;;19.70;59.10;;;;;;5069626;28;19956;-51
2021/10/03 11:26:49;;;;;;;;;;;19.70;59.30;;;;;;5071714;28;20013;-53
2021/10/03 11:29:15;;;;;;;;;;;19.70;59.40;;;;;;5070227;28;20515;-52
2021/10/03 11:31:48;;;;;;;;;;;19.70;59.50;;;;;;5070895;28;19970;-52
2021/10/03 11:34:26;;;;;;;;;;;19.70;59.50;;;;;;5073360;28;19926;-53
2021/10/03 11:36:51;;;;;;;;;;;19.80;59.30;;;;;;5066052;28;19930;-56
2021/10/03 11:39:16;;;;;;;;;;;19.80;58.90;;;;;;5069979;28;19920;-51
2021/10/03 11:41:48;;;;;;;;;;;19.80;59.00;;;;;;5068383;28;20372;-55
2021/10/03 11:44:18;;;;;;;;;;;19.70;58.90;;;;;;5056581;28;20384;-53
2021/10/03 11:47:00;;;;;;;;;;;19.70;59.30;;;;;;5064909;28;19916;-55
2021/10/03 11:49:28;;;;;;;;;;;19.80;59.00;;;;;;5045061;28;19975;-55
2021/10/03 11:51:54;;;;;;;;;;;19.70;58.40;;;;;;5051664;28;19932;-55
2021/10/03 11:54:33;;;;;;;;;;;19.80;58.10;;;;;;5060524;28;19973;-54
2021/10/03 11:57:11;;;;;;;;;;;19.70;57.80;;;;;;5070891;28;19916;-54
2021/10/03 11:59:37;;;;;;;;;;;19.70;57.70;;;;;;5080361;28;20392;-56
2021/10/03 12:02:10;;;;;;;;;;;19.80;59.60;;;;;;5076502;28;19912;-57
2021/10/03 12:04:36;;;;;;;;;;;19.80;59.50;;;;;;5079780;28;19924;-51
2021/10/03 12:07:12;;;;;;;;;;;19.80;58.70;;;;;;5074839;28;19913;-56
2021/10/03 12:09:37;;;;;;;;;;;19.70;58.20;;;;;;5070016;28;19927;-53
2021/10/03 12:12:03;;;;;;;;;;;19.80;58.50;;;;;;5071006;28;19912;-51
2021/10/03 12:14:40;;;;;;;;;;;19.80;58.80;;;;;;5080256;28;20066;-55
2021/10/03 12:17:05;;;;;;;;;;;19.80;58.10;;;;;;5081365;28;19924;-54
2021/10/03 12:19:34;;;;;;;;;;;19.80;58.10;;;;;;5068709;28;20076;-51
2021/10/03 12:22:04;;;;;;;;;;;19.80;58.10;;;;;;5074124;28;19920;-53
2021/10/03 12:24:29;;;;;;;;;;;19.80;58.10;;;;;;5071796;28;19924;-51
2021/10/03 12:26:55;;;;;;;;;;;19.80;57.80;;;;;;5079737;28;19920;-52
2021/10/03 12:29:23;;;;;;;;;;;19.80;57.70;;;;;;5072322;28;19924;-51
2021/10/03 12:31:52;;;;;;;;;;;19.80;58.60;;;;;;5076778;28;20285;-54
2021/10/03 12:34:21;;;;;;;;;;;19.80;58.20;;;;;;5062969;28;20157;-53
2021/10/03 12:36:49;;;;;;;;;;;19.80;57.70;;;;;;5070291;28;19955;-55
2021/10/03 12:39:15;;;;;;;;;;;19.80;57.50;;;;;;5074670;28;19916;-53
2021/10/03 12:41:40;;;;;;;;;;;19.80;57.80;;;;;;5070249;28;19982;-55
2021/10/03 12:44:06;;;;;;;;;;;19.80;57.50;;;;;;5063244;28;19917;-53
2021/10/03 12:46:31;;;;;;;;;;;19.80;57.40;;;;;;5070146;28;20457;-56
2021/10/03 12:48:57;;;;;;;;;;;19.80;56.80;;;;;;5083517;28;20010;-53
2021/10/03 12:51:22;;;;;;;;;;;19.80;56.40;;;;;;5074741;28;19917;-54
2021/10/03 12:53:48;;;;;;;;;;;19.80;55.90;;;;;;5076510;28;19920;-53
2021/10/03 12:56:16;;;;;;;;;;;19.80;55.40;;;;;;5068057;28;19920;-55
2021/10/03 12:58:42;;;;;;;;;;;19.80;55.70;;;;;;5065498;28;19916;-55
2021/10/03 13:01:08;;;;;;;;;;;19.80;56.50;;;;;;5064359;28;19999;-55
2021/10/03 13:03:34;;;;;;;;;;;19.80;56.40;;;;;;5076427;28;19969;-54
2021/10/03 13:06:02;;;;;;;;;;;19.80;56.40;;;;;;5055155;28;19912;-52
2021/10/03 13:08:28;;;;;;;;;;;19.80;56.70;;;;;;5063169;28;20373;-56
2021/10/03 13:10:53;;;;;;;;;;;19.80;56.90;;;;;;5050935;28;19935;-57
2021/10/03 13:13:18;;;;;;;;;;;19.80;57.00;;;;;;5067654;28;19916;-55
2021/10/03 13:15:44;;;;;;;;;;;19.90;56.90;;;;;;5065061;28;19927;-56
2021/10/03 13:18:09;;;;;;;;;;;19.80;56.90;;;;;;5074081;28;19923;-51
2021/10/03 13:20:35;;;;;;;;;;;19.80;56.50;;;;;;5070533;28;20480;-56
2021/10/03 13:23:00;;;;;;;;;;;19.80;56.50;;;;;;5071204;28;19970;-55
2021/10/03 13:25:26;;;;;;;;;;;19.80;56.70;;;;;;5075613;28;19912;-55
2021/10/03 13:27:51;;;;;;;;;;;19.80;56.70;;;;;;5054457;28;19939;-55
2021/10/03 13:30:17;;;;;;;;;;;19.80;56.70;;;;;;5062480;28;19921;-56
2021/10/03 13:32:43;;;;;;;;;;;19.80;56.60;;;;;;5071597;28;19924;-55
2021/10/03 13:35:09;;;;;;;;;;;19.90;56.60;;;;;;5062696;28;19969;-55
2021/10/03 13:37:34;;;;;;;;;;;19.80;56.40;;;;;;5052989;28;19924;-52
2021/10/03 13:39:59;;;;;;;;;;;19.80;56.60;;;;;;5064195;28;19913;-56
2021/10/03 13:42:25;;;;;;;;;;;19.90;56.50;;;;;;5073794;28;20480;-55
2021/10/03 13:44:51;;;;;;;;;;;19.90;56.50;;;;;;5078607;28;19912;-54
2021/10/03 13:47:17;;;;;;;;;;;19.80;56.20;;;;;;5053582;28;20304;-57
2021/10/03 13:49:42;;;;;;;;;;;19.90;56.20;;;;;;5073815;28;19917;-55
2021/10/03 13:52:08;;;;;;;;;;;19.80;56.40;;;;;;5061768;28;19978;-57
2021/10/03 13:54:33;;;;;;;;;;;19.90;56.80;;;;;;5046045;28;19925;-55
2021/10/03 13:56:59;;;;;;;;;;;19.90;56.20;;;;;;5074614;28;19922;-55
2021/10/03 13:59:24;;;;;;;;;;;19.90;56.50;;;;;;5068519;28;19921;-55
2021/10/03 14:01:50;;;;;;;;;;;19.90;56.60;;;;;;5065230;28;20302;-52
2021/10/03 14:04:15;;;;;;;;;;;19.90;56.70;;;;;;5064442;28;19948;-57
2021/10/03 14:06:40;;;;;;;;;;;19.90;56.70;;;;;;5064251;28;19924;-56
2021/10/03 14:09:06;;;;;;;;;;;19.90;56.50;;;;;;5068746;28;20321;-52
2021/10/03 14:11:31;;;;;;;;;;;19.90;56.70;;;;;;5067200;28;19916;-55
2021/10/03 14:13:57;;;;;;;;;;;19.90;56.90;;;;;;5071630;28;19916;-56